sensor_id;sensor_type;location;lat;lon;timestamp;P1;durP1;ratioP1;P2;durP2;ratioP2
7983;SDS011;4037;47.980;10.172;2023-03-23T00:01:00;5.67;;;4.50;;
7983;SDS011;4037;47.980;10.172;2023-03-23T00:03:26;7.27;;;5.03;;
7983;SDS011;4037;47.980;10.172;2023-03-23T00:05:54;6.73;;;5.27;;
7983;SDS011;4037;47.980;10.172;2023-03-23T00:08:28;8.10;;;4.90;;
7983;SDS011;4037;47.980;10.172;2023-03-23T00:10:54;7.40;;;5.20;;
7983;SDS011;4037;47.980;10.172;2023-03-23T00:13:22;6.50;;;4.40;;
7983;SDS011;4037;47.980;10.172;2023-03-23T00:15:48;6.97;;;4.87;;
7983;SDS011;4037;47.980;10.172;2023-03-23T00:18:17;7.73;;;4.63;;
7983;SDS011;4037;47.980;10.172;2023-03-23T00:20:50;7.33;;;4.90;;
7983;SDS011;4037;47.980;10.172;2023-03-23T00:23:17;6.27;;;5.17;;
7983;SDS011;4037;47.980;10.172;2023-03-23T00:25:47;6.30;;;4.60;;
7983;SDS011;4037;47.980;10.172;2023-03-23T00:28:13;5.77;;;4.47;;
7983;SDS011;4037;47.980;10.172;2023-03-23T00:30:40;5.73;;;4.67;;
7983;SDS011;4037;47.980;10.172;2023-03-23T00:33:07;6.80;;;4.90;;
7983;SDS011;4037;47.980;10.172;2023-03-23T00:35:33;7.83;;;4.90;;
7983;SDS011;4037;47.980;10.172;2023-03-23T00:38:00;6.77;;;4.70;;
7983;SDS011;4037;47.980;10.172;2023-03-23T00:40:27;7.03;;;4.93;;
7983;SDS011;4037;47.980;10.172;2023-03-23T00:42:53;8.53;;;4.33;;
7983;SDS011;4037;47.980;10.172;2023-03-23T00:45:21;7.40;;;5.00;;
7983;SDS011;4037;47.980;10.172;2023-03-23T00:47:49;5.87;;;5.10;;
7983;SDS011;4037;47.980;10.172;2023-03-23T00:50:15;4.97;;;4.43;;
7983;SDS011;4037;47.980;10.172;2023-03-23T00:52:43;6.23;;;4.77;;
7983;SDS011;4037;47.980;10.172;2023-03-23T00:55:09;7.03;;;4.90;;
7983;SDS011;4037;47.980;10.172;2023-03-23T00:57:35;6.67;;;4.73;;
7983;SDS011;4037;47.980;10.172;2023-03-23T01:00:01;7.80;;;4.93;;
7983;SDS011;4037;47.980;10.172;2023-03-23T01:02:30;5.10;;;4.60;;
7983;SDS011;4037;47.980;10.172;2023-03-23T01:04:56;5.27;;;4.20;;
7983;SDS011;4037;47.980;10.172;2023-03-23T01:07:23;5.00;;;4.10;;
7983;SDS011;4037;47.980;10.172;2023-03-23T01:09:49;5.20;;;4.47;;
7983;SDS011;4037;47.980;10.172;2023-03-23T01:12:18;6.33;;;4.63;;
7983;SDS011;4037;47.980;10.172;2023-03-23T01:14:44;5.87;;;4.63;;
7983;SDS011;4037;47.980;10.172;2023-03-23T01:17:10;5.60;;;4.70;;
7983;SDS011;4037;47.980;10.172;2023-03-23T01:19:36;6.17;;;5.53;;
7983;SDS011;4037;47.980;10.172;2023-03-23T01:22:02;5.83;;;5.17;;
7983;SDS011;4037;47.980;10.172;2023-03-23T01:24:28;6.10;;;5.07;;
7983;SDS011;4037;47.980;10.172;2023-03-23T01:26:54;9.20;;;5.50;;
7983;SDS011;4037;47.980;10.172;2023-03-23T01:29:20;8.70;;;5.50;;
7983;SDS011;4037;47.980;10.172;2023-03-23T01:31:46;7.40;;;5.60;;
7983;SDS011;4037;47.980;10.172;2023-03-23T01:34:12;6.10;;;5.07;;
7983;SDS011;4037;47.980;10.172;2023-03-23T01:36:38;6.57;;;5.87;;
7983;SDS011;4037;47.980;10.172;2023-03-23T01:39:05;5.83;;;4.90;;
7983;SDS011;4037;47.980;10.172;2023-03-23T01:41:32;7.67;;;5.30;;
7983;SDS011;4037;47.980;10.172;2023-03-23T01:44:03;7.07;;;5.17;;
7983;SDS011;4037;47.980;10.172;2023-03-23T01:46:30;5.37;;;4.87;;
7983;SDS011;4037;47.980;10.172;2023-03-23T01:48:57;5.50;;;5.00;;
7983;SDS011;4037;47.980;10.172;2023-03-23T01:51:24;6.93;;;4.97;;
7983;SDS011;4037;47.980;10.172;2023-03-23T01:53:56;7.93;;;5.60;;
7983;SDS011;4037;47.980;10.172;2023-03-23T01:56:24;8.13;;;5.83;;
7983;SDS011;4037;47.980;10.172;2023-03-23T01:58:52;6.27;;;4.90;;
7983;SDS011;4037;47.980;10.172;2023-03-23T02:01:18;5.33;;;4.70;;
7983;SDS011;4037;47.980;10.172;2023-03-23T02:03:46;6.47;;;4.57;;
7983;SDS011;4037;47.980;10.172;2023-03-23T02:06:16;5.40;;;4.53;;
7983;SDS011;4037;47.980;10.172;2023-03-23T02:08:42;5.97;;;4.83;;
7983;SDS011;4037;47.980;10.172;2023-03-23T02:11:16;5.47;;;4.17;;
7983;SDS011;4037;47.980;10.172;2023-03-23T02:13:43;7.03;;;4.77;;
7983;SDS011;4037;47.980;10.172;2023-03-23T02:16:54;5.67;;;4.77;;
7983;SDS011;4037;47.980;10.172;2023-03-23T02:21:55;7.60;;;4.50;;
7983;SDS011;4037;47.980;10.172;2023-03-23T02:29:53;5.30;;;4.37;;
7983;SDS011;4037;47.980;10.172;2023-03-23T02:32:32;7.73;;;4.97;;
7983;SDS011;4037;47.980;10.172;2023-03-23T02:35:38;4.73;;;4.23;;
7983;SDS011;4037;47.980;10.172;2023-03-23T02:40:24;5.30;;;4.60;;
7983;SDS011;4037;47.980;10.172;2023-03-23T02:42:52;6.07;;;4.80;;
7983;SDS011;4037;47.980;10.172;2023-03-23T02:45:19;6.40;;;4.20;;
7983;SDS011;4037;47.980;10.172;2023-03-23T02:47:46;4.50;;;4.10;;
7983;SDS011;4037;47.980;10.172;2023-03-23T02:50:14;5.57;;;4.97;;
7983;SDS011;4037;47.980;10.172;2023-03-23T02:52:41;5.70;;;4.00;;
7983;SDS011;4037;47.980;10.172;2023-03-23T02:55:08;5.53;;;4.90;;
7983;SDS011;4037;47.980;10.172;2023-03-23T02:57:36;5.50;;;4.67;;
7983;SDS011;4037;47.980;10.172;2023-03-23T03:00:03;6.57;;;4.40;;
7983;SDS011;4037;47.980;10.172;2023-03-23T03:02:32;7.00;;;4.63;;
7983;SDS011;4037;47.980;10.172;2023-03-23T03:10:08;5.83;;;4.20;;
7983;SDS011;4037;47.980;10.172;2023-03-23T03:12:50;6.53;;;4.90;;
7983;SDS011;4037;47.980;10.172;2023-03-23T03:20:59;7.30;;;4.03;;
7983;SDS011;4037;47.980;10.172;2023-03-23T03:23:26;5.00;;;4.13;;
7983;SDS011;4037;47.980;10.172;2023-03-23T03:25:53;5.23;;;4.40;;
7983;SDS011;4037;47.980;10.172;2023-03-23T03:28:22;6.13;;;4.67;;
7983;SDS011;4037;47.980;10.172;2023-03-23T03:30:54;6.63;;;4.63;;
7983;SDS011;4037;47.980;10.172;2023-03-23T03:33:21;7.63;;;4.33;;
7983;SDS011;4037;47.980;10.172;2023-03-23T03:35:50;13.93;;;5.13;;
7983;SDS011;4037;47.980;10.172;2023-03-23T03:38:17;5.47;;;4.27;;
7983;SDS011;4037;47.980;10.172;2023-03-23T03:40:43;7.00;;;4.47;;
7983;SDS011;4037;47.980;10.172;2023-03-23T03:43:09;5.80;;;4.30;;
7983;SDS011;4037;47.980;10.172;2023-03-23T03:45:35;9.17;;;5.10;;
7983;SDS011;4037;47.980;10.172;2023-03-23T03:48:01;5.90;;;4.40;;
7983;SDS011;4037;47.980;10.172;2023-03-23T03:50:27;5.30;;;4.70;;
7983;SDS011;4037;47.980;10.172;2023-03-23T03:52:53;6.10;;;5.03;;
7983;SDS011;4037;47.980;10.172;2023-03-23T03:55:19;5.97;;;4.37;;
7983;SDS011;4037;47.980;10.172;2023-03-23T03:57:46;4.97;;;4.47;;
7983;SDS011;4037;47.980;10.172;2023-03-23T04:00:13;6.80;;;4.67;;
7983;SDS011;4037;47.980;10.172;2023-03-23T04:02:40;6.40;;;4.60;;
7983;SDS011;4037;47.980;10.172;2023-03-23T04:05:06;7.00;;;4.43;;
7983;SDS011;4037;47.980;10.172;2023-03-23T04:07:35;6.00;;;5.03;;
7983;SDS011;4037;47.980;10.172;2023-03-23T04:10:03;5.83;;;5.17;;
7983;SDS011;4037;47.980;10.172;2023-03-23T04:12:30;6.10;;;4.47;;
7983;SDS011;4037;47.980;10.172;2023-03-23T04:14:56;6.87;;;4.87;;
7983;SDS011;4037;47.980;10.172;2023-03-23T04:17:22;6.33;;;4.60;;
7983;SDS011;4037;47.980;10.172;2023-03-23T04:19:51;7.47;;;4.80;;
7983;SDS011;4037;47.980;10.172;2023-03-23T04:22:17;5.93;;;4.80;;
7983;SDS011;4037;47.980;10.172;2023-03-23T04:24:43;5.60;;;4.73;;
7983;SDS011;4037;47.980;10.172;2023-03-23T04:27:09;7.70;;;5.50;;
7983;SDS011;4037;47.980;10.172;2023-03-23T04:29:38;6.73;;;4.40;;
7983;SDS011;4037;47.980;10.172;2023-03-23T04:32:04;6.03;;;4.43;;
7983;SDS011;4037;47.980;10.172;2023-03-23T04:34:31;6.43;;;4.67;;
7983;SDS011;4037;47.980;10.172;2023-03-23T04:36:57;5.83;;;4.47;;
7983;SDS011;4037;47.980;10.172;2023-03-23T04:39:23;5.90;;;4.70;;
7983;SDS011;4037;47.980;10.172;2023-03-23T04:41:53;5.43;;;4.50;;
7983;SDS011;4037;47.980;10.172;2023-03-23T04:44:19;5.27;;;4.10;;
7983;SDS011;4037;47.980;10.172;2023-03-23T04:46:46;5.73;;;4.70;;
7983;SDS011;4037;47.980;10.172;2023-03-23T04:49:14;6.70;;;4.87;;
7983;SDS011;4037;47.980;10.172;2023-03-23T04:51:45;6.23;;;4.43;;
7983;SDS011;4037;47.980;10.172;2023-03-23T04:54:12;6.23;;;5.43;;
7983;SDS011;4037;47.980;10.172;2023-03-23T04:56:38;5.73;;;5.13;;
7983;SDS011;4037;47.980;10.172;2023-03-23T04:59:04;6.67;;;5.07;;
7983;SDS011;4037;47.980;10.172;2023-03-23T05:01:31;6.57;;;4.63;;
7983;SDS011;4037;47.980;10.172;2023-03-23T05:03:59;6.67;;;5.57;;
7983;SDS011;4037;47.980;10.172;2023-03-23T05:06:25;7.30;;;5.33;;
7983;SDS011;4037;47.980;10.172;2023-03-23T05:08:51;7.60;;;4.53;;
7983;SDS011;4037;47.980;10.172;2023-03-23T05:11:17;7.10;;;4.40;;
7983;SDS011;4037;47.980;10.172;2023-03-23T05:13:43;6.30;;;3.93;;
7983;SDS011;4037;47.980;10.172;2023-03-23T05:16:09;6.20;;;4.20;;
7983;SDS011;4037;47.980;10.172;2023-03-23T05:18:35;7.10;;;4.97;;
7983;SDS011;4037;47.980;10.172;2023-03-23T05:21:02;7.77;;;4.80;;
7983;SDS011;4037;47.980;10.172;2023-03-23T05:23:29;5.80;;;4.93;;
7983;SDS011;4037;47.980;10.172;2023-03-23T05:25:58;5.83;;;5.00;;
7983;SDS011;4037;47.980;10.172;2023-03-23T05:28:26;6.30;;;3.97;;
7983;SDS011;4037;47.980;10.172;2023-03-23T05:30:52;4.97;;;4.40;;
7983;SDS011;4037;47.980;10.172;2023-03-23T05:33:18;5.00;;;4.20;;
7983;SDS011;4037;47.980;10.172;2023-03-23T05:35:45;6.67;;;4.37;;
7983;SDS011;4037;47.980;10.172;2023-03-23T05:38:12;4.80;;;4.00;;
7983;SDS011;4037;47.980;10.172;2023-03-23T05:40:39;6.17;;;4.40;;
7983;SDS011;4037;47.980;10.172;2023-03-23T05:43:06;6.43;;;4.03;;
7983;SDS011;4037;47.980;10.172;2023-03-23T05:45:32;5.43;;;4.43;;
7983;SDS011;4037;47.980;10.172;2023-03-23T05:47:59;7.20;;;4.60;;
7983;SDS011;4037;47.980;10.172;2023-03-23T05:50:25;6.23;;;4.70;;
7983;SDS011;4037;47.980;10.172;2023-03-23T05:52:53;8.17;;;4.73;;
7983;SDS011;4037;47.980;10.172;2023-03-23T05:55:19;6.40;;;5.37;;
7983;SDS011;4037;47.980;10.172;2023-03-23T05:57:45;7.53;;;5.13;;
7983;SDS011;4037;47.980;10.172;2023-03-23T06:00:12;5.83;;;4.60;;
7983;SDS011;4037;47.980;10.172;2023-03-23T06:02:39;5.73;;;4.50;;
7983;SDS011;4037;47.980;10.172;2023-03-23T06:05:08;6.83;;;4.80;;
7983;SDS011;4037;47.980;10.172;2023-03-23T06:07:34;5.17;;;3.97;;
7983;SDS011;4037;47.980;10.172;2023-03-23T06:10:01;6.37;;;3.80;;
7983;SDS011;4037;47.980;10.172;2023-03-23T06:12:27;4.70;;;3.97;;
7983;SDS011;4037;47.980;10.172;2023-03-23T06:14:53;5.93;;;3.63;;
7983;SDS011;4037;47.980;10.172;2023-03-23T06:17:19;4.17;;;3.67;;
7983;SDS011;4037;47.980;10.172;2023-03-23T06:19:45;4.33;;;3.83;;
7983;SDS011;4037;47.980;10.172;2023-03-23T06:22:13;5.37;;;3.80;;
7983;SDS011;4037;47.980;10.172;2023-03-23T06:24:40;4.13;;;3.50;;
7983;SDS011;4037;47.980;10.172;2023-03-23T06:27:06;5.80;;;4.20;;
7983;SDS011;4037;47.980;10.172;2023-03-23T06:29:34;5.10;;;3.27;;
7983;SDS011;4037;47.980;10.172;2023-03-23T06:32:00;4.30;;;3.90;;
7983;SDS011;4037;47.980;10.172;2023-03-23T06:34:27;4.07;;;3.57;;
7983;SDS011;4037;47.980;10.172;2023-03-23T06:36:54;4.33;;;3.53;;
7983;SDS011;4037;47.980;10.172;2023-03-23T06:39:20;4.40;;;3.80;;
7983;SDS011;4037;47.980;10.172;2023-03-23T06:41:47;4.77;;;3.53;;
7983;SDS011;4037;47.980;10.172;2023-03-23T06:44:13;6.37;;;3.53;;
7983;SDS011;4037;47.980;10.172;2023-03-23T06:46:39;4.20;;;3.30;;
7983;SDS011;4037;47.980;10.172;2023-03-23T06:49:06;5.80;;;3.80;;
7983;SDS011;4037;47.980;10.172;2023-03-23T06:51:32;4.70;;;3.33;;
7983;SDS011;4037;47.980;10.172;2023-03-23T06:53:58;6.80;;;3.53;;
7983;SDS011;4037;47.980;10.172;2023-03-23T06:56:24;5.93;;;3.97;;
7983;SDS011;4037;47.980;10.172;2023-03-23T06:58:51;6.87;;;3.47;;
7983;SDS011;4037;47.980;10.172;2023-03-23T07:01:17;5.03;;;3.30;;
7983;SDS011;4037;47.980;10.172;2023-03-23T07:03:43;6.13;;;3.40;;
7983;SDS011;4037;47.980;10.172;2023-03-23T07:06:09;6.53;;;3.43;;
7983;SDS011;4037;47.980;10.172;2023-03-23T07:08:35;6.30;;;3.57;;
7983;SDS011;4037;47.980;10.172;2023-03-23T07:11:02;4.23;;;3.27;;
7983;SDS011;4037;47.980;10.172;2023-03-23T07:13:28;7.47;;;3.00;;
7983;SDS011;4037;47.980;10.172;2023-03-23T07:15:54;6.90;;;3.27;;
7983;SDS011;4037;47.980;10.172;2023-03-23T07:18:22;5.00;;;3.10;;
7983;SDS011;4037;47.980;10.172;2023-03-23T07:20:49;4.20;;;3.40;;
7983;SDS011;4037;47.980;10.172;2023-03-23T07:23:15;4.13;;;3.13;;
7983;SDS011;4037;47.980;10.172;2023-03-23T07:25:42;4.37;;;3.30;;
7983;SDS011;4037;47.980;10.172;2023-03-23T07:28:08;4.50;;;3.27;;
7983;SDS011;4037;47.980;10.172;2023-03-23T07:30:34;5.80;;;3.17;;
7983;SDS011;4037;47.980;10.172;2023-03-23T07:33:03;4.53;;;3.60;;
7983;SDS011;4037;47.980;10.172;2023-03-23T07:35:30;5.43;;;3.37;;
7983;SDS011;4037;47.980;10.172;2023-03-23T07:37:56;4.40;;;3.07;;
7983;SDS011;4037;47.980;10.172;2023-03-23T07:40:22;4.60;;;3.63;;
7983;SDS011;4037;47.980;10.172;2023-03-23T07:42:52;5.03;;;3.53;;
7983;SDS011;4037;47.980;10.172;2023-03-23T07:45:18;3.90;;;3.47;;
7983;SDS011;4037;47.980;10.172;2023-03-23T07:47:44;4.80;;;3.03;;
7983;SDS011;4037;47.980;10.172;2023-03-23T07:50:10;4.77;;;3.20;;
7983;SDS011;4037;47.980;10.172;2023-03-23T07:52:37;3.93;;;3.53;;
7983;SDS011;4037;47.980;10.172;2023-03-23T07:55:05;4.40;;;3.50;;
7983;SDS011;4037;47.980;10.172;2023-03-23T07:57:31;4.23;;;3.67;;
7983;SDS011;4037;47.980;10.172;2023-03-23T07:59:58;3.40;;;3.10;;
7983;SDS011;4037;47.980;10.172;2023-03-23T08:02:25;8.97;;;3.53;;
7983;SDS011;4037;47.980;10.172;2023-03-23T08:04:52;3.83;;;3.47;;
7983;SDS011;4037;47.980;10.172;2023-03-23T08:07:19;3.47;;;3.17;;
7983;SDS011;4037;47.980;10.172;2023-03-23T08:09:45;5.57;;;3.50;;
7983;SDS011;4037;47.980;10.172;2023-03-23T08:12:12;3.87;;;3.30;;
7983;SDS011;4037;47.980;10.172;2023-03-23T08:14:38;4.23;;;3.37;;
7983;SDS011;4037;47.980;10.172;2023-03-23T08:17:05;4.23;;;3.57;;
7983;SDS011;4037;47.980;10.172;2023-03-23T08:19:31;5.20;;;4.37;;
7983;SDS011;4037;47.980;10.172;2023-03-23T08:22:01;4.60;;;4.07;;
7983;SDS011;4037;47.980;10.172;2023-03-23T08:24:27;4.43;;;3.83;;
7983;SDS011;4037;47.980;10.172;2023-03-23T08:26:53;4.40;;;4.00;;
7983;SDS011;4037;47.980;10.172;2023-03-23T08:29:19;5.87;;;4.20;;
7983;SDS011;4037;47.980;10.172;2023-03-23T08:31:45;5.00;;;4.20;;
7983;SDS011;4037;47.980;10.172;2023-03-23T08:34:12;4.87;;;4.37;;
7983;SDS011;4037;47.980;10.172;2023-03-23T08:36:38;12.07;;;4.30;;
7983;SDS011;4037;47.980;10.172;2023-03-23T08:39:04;5.30;;;4.20;;
7983;SDS011;4037;47.980;10.172;2023-03-23T08:41:31;4.47;;;3.97;;
7983;SDS011;4037;47.980;10.172;2023-03-23T08:43:57;5.07;;;4.07;;
7983;SDS011;4037;47.980;10.172;2023-03-23T08:46:23;4.40;;;3.57;;
7983;SDS011;4037;47.980;10.172;2023-03-23T08:48:49;4.47;;;3.30;;
7983;SDS011;4037;47.980;10.172;2023-03-23T08:51:16;3.30;;;2.77;;
7983;SDS011;4037;47.980;10.172;2023-03-23T08:53:42;3.60;;;3.00;;
7983;SDS011;4037;47.980;10.172;2023-03-23T08:56:09;4.23;;;3.27;;
7983;SDS011;4037;47.980;10.172;2023-03-23T08:58:38;5.80;;;4.30;;
7983;SDS011;4037;47.980;10.172;2023-03-23T09:01:05;7.47;;;4.30;;
7983;SDS011;4037;47.980;10.172;2023-03-23T09:03:32;6.57;;;4.50;;
7983;SDS011;4037;47.980;10.172;2023-03-23T09:06:02;5.43;;;4.07;;
7983;SDS011;4037;47.980;10.172;2023-03-23T09:08:28;4.37;;;3.67;;
7983;SDS011;4037;47.980;10.172;2023-03-23T09:10:58;5.17;;;4.20;;
7983;SDS011;4037;47.980;10.172;2023-03-23T09:13:25;3.87;;;2.70;;
7983;SDS011;4037;47.980;10.172;2023-03-23T09:15:51;2.50;;;1.57;;
7983;SDS011;4037;47.980;10.172;2023-03-23T09:18:17;3.20;;;2.07;;
7983;SDS011;4037;47.980;10.172;2023-03-23T09:20:43;2.03;;;1.60;;
7983;SDS011;4037;47.980;10.172;2023-03-23T09:23:09;2.47;;;1.70;;
7983;SDS011;4037;47.980;10.172;2023-03-23T09:25:38;6.07;;;1.70;;
7983;SDS011;4037;47.980;10.172;2023-03-23T09:28:03;2.30;;;1.70;;
7983;SDS011;4037;47.980;10.172;2023-03-23T09:30:31;2.80;;;1.43;;
7983;SDS011;4037;47.980;10.172;2023-03-23T09:32:59;3.97;;;1.90;;
7983;SDS011;4037;47.980;10.172;2023-03-23T09:35:26;2.30;;;1.40;;
7983;SDS011;4037;47.980;10.172;2023-03-23T09:37:53;2.13;;;1.80;;
7983;SDS011;4037;47.980;10.172;2023-03-23T09:42:58;2.70;;;1.50;;
7983;SDS011;4037;47.980;10.172;2023-03-23T09:45:38;1.93;;;1.73;;
7983;SDS011;4037;47.980;10.172;2023-03-23T09:50:36;2.53;;;1.87;;
7983;SDS011;4037;47.980;10.172;2023-03-23T09:53:11;2.30;;;1.30;;
7983;SDS011;4037;47.980;10.172;2023-03-23T09:55:38;1.37;;;1.27;;
7983;SDS011;4037;47.980;10.172;2023-03-23T10:00:46;3.13;;;1.53;;
7983;SDS011;4037;47.980;10.172;2023-03-23T10:03:13;5.10;;;1.70;;
7983;SDS011;4037;47.980;10.172;2023-03-23T10:05:51;2.50;;;1.47;;
7983;SDS011;4037;47.980;10.172;2023-03-23T10:08:21;1.47;;;1.37;;
7983;SDS011;4037;47.980;10.172;2023-03-23T10:10:51;1.50;;;1.30;;
7983;SDS011;4037;47.980;10.172;2023-03-23T10:13:29;1.70;;;1.43;;
7983;SDS011;4037;47.980;10.172;2023-03-23T10:15:56;2.40;;;1.70;;
7983;SDS011;4037;47.980;10.172;2023-03-23T10:18:29;1.70;;;1.53;;
7983;SDS011;4037;47.980;10.172;2023-03-23T10:20:59;1.93;;;1.67;;
7983;SDS011;4037;47.980;10.172;2023-03-23T10:26:23;2.03;;;1.40;;
7983;SDS011;4037;47.980;10.172;2023-03-23T10:28:52;1.60;;;1.50;;
7983;SDS011;4037;47.980;10.172;2023-03-23T10:31:34;2.00;;;1.50;;
7983;SDS011;4037;47.980;10.172;2023-03-23T10:34:04;2.40;;;1.50;;
7983;SDS011;4037;47.980;10.172;2023-03-23T10:36:34;1.63;;;1.50;;
7983;SDS011;4037;47.980;10.172;2023-03-23T10:39:05;2.50;;;1.80;;
7983;SDS011;4037;47.980;10.172;2023-03-23T10:41:33;2.10;;;1.53;;
7983;SDS011;4037;47.980;10.172;2023-03-23T10:43:59;1.80;;;1.40;;
7983;SDS011;4037;47.980;10.172;2023-03-23T10:48:53;2.90;;;1.80;;
7983;SDS011;4037;47.980;10.172;2023-03-23T10:51:24;2.90;;;1.53;;
7983;SDS011;4037;47.980;10.172;2023-03-23T10:53:55;2.00;;;1.60;;
7983;SDS011;4037;47.980;10.172;2023-03-23T10:56:24;3.00;;;1.90;;
7983;SDS011;4037;47.980;10.172;2023-03-23T10:58:50;3.17;;;1.60;;
7983;SDS011;4037;47.980;10.172;2023-03-23T11:01:18;2.50;;;1.50;;
7983;SDS011;4037;47.980;10.172;2023-03-23T11:03:47;1.90;;;1.70;;
7983;SDS011;4037;47.980;10.172;2023-03-23T11:06:20;2.67;;;1.63;;
7983;SDS011;4037;47.980;10.172;2023-03-23T11:09:32;2.40;;;1.97;;
7983;SDS011;4037;47.980;10.172;2023-03-23T11:11:37;2.00;;;1.73;;
7983;SDS011;4037;47.980;10.172;2023-03-23T11:14:14;2.50;;;1.70;;
7983;SDS011;4037;47.980;10.172;2023-03-23T11:16:54;1.70;;;1.60;;
7983;SDS011;4037;47.980;10.172;2023-03-23T11:19:25;3.63;;;1.97;;
7983;SDS011;4037;47.980;10.172;2023-03-23T11:21:52;1.73;;;1.53;;
7983;SDS011;4037;47.980;10.172;2023-03-23T11:24:21;3.53;;;1.90;;
7983;SDS011;4037;47.980;10.172;2023-03-23T11:26:47;3.10;;;2.03;;
7983;SDS011;4037;47.980;10.172;2023-03-23T11:29:17;2.07;;;1.80;;
7983;SDS011;4037;47.980;10.172;2023-03-23T11:31:47;2.70;;;1.60;;
7983;SDS011;4037;47.980;10.172;2023-03-23T11:34:19;2.17;;;1.67;;
7983;SDS011;4037;47.980;10.172;2023-03-23T11:36:51;2.13;;;1.70;;
7983;SDS011;4037;47.980;10.172;2023-03-23T11:39:24;2.63;;;1.60;;
7983;SDS011;4037;47.980;10.172;2023-03-23T11:41:51;1.80;;;1.50;;
7983;SDS011;4037;47.980;10.172;2023-03-23T11:44:18;2.13;;;1.70;;
7983;SDS011;4037;47.980;10.172;2023-03-23T11:46:49;5.37;;;1.80;;
7983;SDS011;4037;47.980;10.172;2023-03-23T11:49:25;2.57;;;1.50;;
7983;SDS011;4037;47.980;10.172;2023-03-23T11:51:58;1.87;;;1.67;;
7983;SDS011;4037;47.980;10.172;2023-03-23T11:54:31;1.97;;;1.57;;
7983;SDS011;4037;47.980;10.172;2023-03-23T11:56:58;2.53;;;2.10;;
7983;SDS011;4037;47.980;10.172;2023-03-23T11:59:28;1.70;;;1.60;;
7983;SDS011;4037;47.980;10.172;2023-03-23T12:36:04;2.00;;;1.70;;
7983;SDS011;4037;47.980;10.172;2023-03-23T12:44:33;2.63;;;1.70;;
7983;SDS011;4037;47.980;10.172;2023-03-23T12:49:14;1.73;;;1.60;;
7983;SDS011;4037;47.980;10.172;2023-03-23T12:51:59;3.17;;;1.70;;
7983;SDS011;4037;47.980;10.172;2023-03-23T12:56:59;3.63;;;1.87;;
7983;SDS011;4037;47.980;10.172;2023-03-23T13:01:54;2.73;;;1.93;;
7983;SDS011;4037;47.980;10.172;2023-03-23T13:04:24;2.03;;;1.80;;
7983;SDS011;4037;47.980;10.172;2023-03-23T13:06:51;2.40;;;1.73;;
7983;SDS011;4037;47.980;10.172;2023-03-23T13:09:22;2.20;;;1.63;;
7983;SDS011;4037;47.980;10.172;2023-03-23T13:11:51;2.73;;;2.10;;
7983;SDS011;4037;47.980;10.172;2023-03-23T13:20:04;3.20;;;1.80;;
7983;SDS011;4037;47.980;10.172;2023-03-23T13:22:15;1.73;;;1.63;;
7983;SDS011;4037;47.980;10.172;2023-03-23T13:24:51;3.03;;;1.80;;
7983;SDS011;4037;47.980;10.172;2023-03-23T13:27:22;2.47;;;1.77;;
7983;SDS011;4037;47.980;10.172;2023-03-23T13:29:49;4.07;;;1.97;;
7983;SDS011;4037;47.980;10.172;2023-03-23T13:32:16;2.40;;;2.17;;
7983;SDS011;4037;47.980;10.172;2023-03-23T13:34:42;2.47;;;1.70;;
7983;SDS011;4037;47.980;10.172;2023-03-23T13:39:57;2.50;;;2.00;;
7983;SDS011;4037;47.980;10.172;2023-03-23T13:42:25;4.27;;;2.00;;
7983;SDS011;4037;47.980;10.172;2023-03-23T13:49:58;2.83;;;1.80;;
7983;SDS011;4037;47.980;10.172;2023-03-23T14:13:13;3.10;;;1.83;;
7983;SDS011;4037;47.980;10.172;2023-03-23T14:15:43;3.17;;;1.90;;
7983;SDS011;4037;47.980;10.172;2023-03-23T14:18:12;6.33;;;1.80;;
7983;SDS011;4037;47.980;10.172;2023-03-23T14:20:39;1.60;;;1.50;;
7983;SDS011;4037;47.980;10.172;2023-03-23T14:23:05;3.07;;;2.00;;
7983;SDS011;4037;47.980;10.172;2023-03-23T14:25:31;3.00;;;1.70;;
7983;SDS011;4037;47.980;10.172;2023-03-23T14:27:57;2.33;;;1.80;;
7983;SDS011;4037;47.980;10.172;2023-03-23T14:30:27;2.27;;;1.70;;
7983;SDS011;4037;47.980;10.172;2023-03-23T14:33:04;2.00;;;1.73;;
7983;SDS011;4037;47.980;10.172;2023-03-23T14:35:32;2.47;;;2.13;;
7983;SDS011;4037;47.980;10.172;2023-03-23T14:37:58;1.87;;;1.60;;
7983;SDS011;4037;47.980;10.172;2023-03-23T14:40:28;2.70;;;1.63;;
7983;SDS011;4037;47.980;10.172;2023-03-23T14:42:55;1.90;;;1.80;;
7983;SDS011;4037;47.980;10.172;2023-03-23T14:45:22;3.17;;;2.10;;
7983;SDS011;4037;47.980;10.172;2023-03-23T14:47:49;2.57;;;1.73;;
7983;SDS011;4037;47.980;10.172;2023-03-23T14:50:29;2.57;;;1.80;;
7983;SDS011;4037;47.980;10.172;2023-03-23T14:53:03;2.70;;;1.93;;
7983;SDS011;4037;47.980;10.172;2023-03-23T14:55:30;2.07;;;1.63;;
7983;SDS011;4037;47.980;10.172;2023-03-23T14:58:05;4.47;;;1.83;;
7983;SDS011;4037;47.980;10.172;2023-03-23T15:00:33;2.37;;;1.77;;
7983;SDS011;4037;47.980;10.172;2023-03-23T15:03:00;2.60;;;1.97;;
7983;SDS011;4037;47.980;10.172;2023-03-23T15:05:35;3.53;;;2.10;;
7983;SDS011;4037;47.980;10.172;2023-03-23T15:08:03;2.67;;;2.13;;
7983;SDS011;4037;47.980;10.172;2023-03-23T15:10:31;3.03;;;2.10;;
7983;SDS011;4037;47.980;10.172;2023-03-23T15:12:57;2.20;;;2.00;;
7983;SDS011;4037;47.980;10.172;2023-03-23T15:15:29;3.27;;;1.83;;
7983;SDS011;4037;47.980;10.172;2023-03-23T15:17:56;2.73;;;1.87;;
7983;SDS011;4037;47.980;10.172;2023-03-23T15:20:24;2.33;;;1.70;;
7983;SDS011;4037;47.980;10.172;2023-03-23T15:22:51;2.90;;;2.43;;
7983;SDS011;4037;47.980;10.172;2023-03-23T15:25:19;5.13;;;2.50;;
7983;SDS011;4037;47.980;10.172;2023-03-23T15:27:57;4.37;;;2.10;;
7983;SDS011;4037;47.980;10.172;2023-03-23T15:32:51;2.20;;;2.00;;
7983;SDS011;4037;47.980;10.172;2023-03-23T15:35:22;3.20;;;2.20;;
7983;SDS011;4037;47.980;10.172;2023-03-23T15:37:51;3.33;;;2.40;;
7983;SDS011;4037;47.980;10.172;2023-03-23T15:40:18;3.57;;;2.27;;
7983;SDS011;4037;47.980;10.172;2023-03-23T15:42:44;4.90;;;2.57;;
7983;SDS011;4037;47.980;10.172;2023-03-23T15:47:38;4.27;;;2.40;;
7983;SDS011;4037;47.980;10.172;2023-03-23T15:50:20;3.73;;;2.50;;
7983;SDS011;4037;47.980;10.172;2023-03-23T15:52:57;3.83;;;2.43;;
7983;SDS011;4037;47.980;10.172;2023-03-23T15:57:49;3.90;;;2.53;;
7983;SDS011;4037;47.980;10.172;2023-03-23T16:00:16;4.37;;;2.80;;
7983;SDS011;4037;47.980;10.172;2023-03-23T16:02:44;2.73;;;2.37;;
7983;SDS011;4037;47.980;10.172;2023-03-23T16:05:13;6.20;;;2.70;;
7983;SDS011;4037;47.980;10.172;2023-03-23T16:07:40;6.33;;;2.23;;
7983;SDS011;4037;47.980;10.172;2023-03-23T16:10:06;4.27;;;2.60;;
7983;SDS011;4037;47.980;10.172;2023-03-23T16:12:32;4.50;;;2.50;;
7983;SDS011;4037;47.980;10.172;2023-03-23T16:14:58;2.63;;;2.27;;
7983;SDS011;4037;47.980;10.172;2023-03-23T16:17:24;4.43;;;2.87;;
7983;SDS011;4037;47.980;10.172;2023-03-23T16:19:50;4.90;;;2.40;;
7983;SDS011;4037;47.980;10.172;2023-03-23T16:22:16;3.03;;;2.20;;
7983;SDS011;4037;47.980;10.172;2023-03-23T16:24:42;5.00;;;2.47;;
7983;SDS011;4037;47.980;10.172;2023-03-23T16:27:09;4.20;;;2.60;;
7983;SDS011;4037;47.980;10.172;2023-03-23T16:29:35;3.17;;;2.50;;
7983;SDS011;4037;47.980;10.172;2023-03-23T16:32:01;3.60;;;3.13;;
7983;SDS011;4037;47.980;10.172;2023-03-23T16:34:27;3.73;;;2.60;;
7983;SDS011;4037;47.980;10.172;2023-03-23T16:36:57;3.47;;;2.50;;
7983;SDS011;4037;47.980;10.172;2023-03-23T16:39:23;4.13;;;2.53;;
7983;SDS011;4037;47.980;10.172;2023-03-23T16:41:48;4.87;;;2.73;;
7983;SDS011;4037;47.980;10.172;2023-03-23T16:44:14;4.70;;;2.50;;
7983;SDS011;4037;47.980;10.172;2023-03-23T16:46:41;2.47;;;2.20;;
7983;SDS011;4037;47.980;10.172;2023-03-23T16:49:06;3.23;;;2.50;;
7983;SDS011;4037;47.980;10.172;2023-03-23T16:51:33;3.57;;;2.40;;
7983;SDS011;4037;47.980;10.172;2023-03-23T16:53:59;3.63;;;2.87;;
7983;SDS011;4037;47.980;10.172;2023-03-23T16:56:25;4.07;;;2.83;;
7983;SDS011;4037;47.980;10.172;2023-03-23T16:58:54;3.63;;;2.90;;
7983;SDS011;4037;47.980;10.172;2023-03-23T17:01:20;3.00;;;2.70;;
7983;SDS011;4037;47.980;10.172;2023-03-23T17:03:46;2.83;;;2.50;;
7983;SDS011;4037;47.980;10.172;2023-03-23T17:06:12;4.40;;;2.83;;
7983;SDS011;4037;47.980;10.172;2023-03-23T17:08:38;4.60;;;3.03;;